sensor_id;sensor_type;location;lat;lon;timestamp;P1;durP1;ratioP1;P2;durP2;ratioP2
2772;SDS011;1394;47.044;15.744;2023-02-15T00:01:34;30.50;;;7.10;;
2772;SDS011;1394;47.044;15.744;2023-02-15T00:04:01;32.37;;;9.53;;
2772;SDS011;1394;47.044;15.744;2023-02-15T00:06:28;31.47;;;8.03;;
2772;SDS011;1394;47.044;15.744;2023-02-15T00:09:00;31.40;;;8.57;;
2772;SDS011;1394;47.044;15.744;2023-02-15T00:11:27;31.47;;;8.23;;
2772;SDS011;1394;47.044;15.744;2023-02-15T00:14:09;31.07;;;7.43;;
2772;SDS011;1394;47.044;15.744;2023-02-15T00:16:37;31.07;;;8.20;;
2772;SDS011;1394;47.044;15.744;2023-02-15T00:19:05;32.33;;;9.20;;
2772;SDS011;1394;47.044;15.744;2023-02-15T00:21:32;32.70;;;9.40;;
2772;SDS011;1394;47.044;15.744;2023-02-15T00:24:00;30.70;;;7.43;;
2772;SDS011;1394;47.044;15.744;2023-02-15T00:26:28;29.57;;;6.93;;
2772;SDS011;1394;47.044;15.744;2023-02-15T00:28:55;29.57;;;6.30;;
2772;SDS011;1394;47.044;15.744;2023-02-15T00:31:25;30.80;;;7.30;;
2772;SDS011;1394;47.044;15.744;2023-02-15T00:33:55;29.40;;;6.70;;
2772;SDS011;1394;47.044;15.744;2023-02-15T00:36:22;30.17;;;7.17;;
2772;SDS011;1394;47.044;15.744;2023-02-15T00:38:50;31.40;;;8.70;;
2772;SDS011;1394;47.044;15.744;2023-02-15T00:41:17;29.87;;;7.03;;
2772;SDS011;1394;47.044;15.744;2023-02-15T00:43:47;31.33;;;7.43;;
2772;SDS011;1394;47.044;15.744;2023-02-15T00:46:14;29.37;;;6.70;;
2772;SDS011;1394;47.044;15.744;2023-02-15T00:48:42;30.40;;;7.93;;
2772;SDS011;1394;47.044;15.744;2023-02-15T00:51:10;30.47;;;8.37;;
2772;SDS011;1394;47.044;15.744;2023-02-15T00:53:37;31.77;;;7.77;;
2772;SDS011;1394;47.044;15.744;2023-02-15T00:56:04;29.73;;;7.33;;
2772;SDS011;1394;47.044;15.744;2023-02-15T00:58:31;30.30;;;7.37;;
2772;SDS011;1394;47.044;15.744;2023-02-15T01:01:02;29.47;;;6.80;;
2772;SDS011;1394;47.044;15.744;2023-02-15T01:03:31;29.37;;;7.10;;
2772;SDS011;1394;47.044;15.744;2023-02-15T01:06:00;31.00;;;7.67;;
2772;SDS011;1394;47.044;15.744;2023-02-15T01:08:28;30.40;;;7.47;;
2772;SDS011;1394;47.044;15.744;2023-02-15T01:10:55;31.60;;;8.60;;
2772;SDS011;1394;47.044;15.744;2023-02-15T01:13:22;29.73;;;6.67;;
2772;SDS011;1394;47.044;15.744;2023-02-15T01:15:52;28.97;;;6.70;;
2772;SDS011;1394;47.044;15.744;2023-02-15T01:18:20;29.97;;;7.57;;
2772;SDS011;1394;47.044;15.744;2023-02-15T01:20:47;29.53;;;6.70;;
2772;SDS011;1394;47.044;15.744;2023-02-15T01:23:16;30.63;;;7.67;;
2772;SDS011;1394;47.044;15.744;2023-02-15T01:25:43;29.07;;;6.47;;
2772;SDS011;1394;47.044;15.744;2023-02-15T01:28:10;29.53;;;6.90;;
2772;SDS011;1394;47.044;15.744;2023-02-15T01:30:37;30.07;;;6.73;;
2772;SDS011;1394;47.044;15.744;2023-02-15T01:33:04;29.30;;;5.90;;
2772;SDS011;1394;47.044;15.744;2023-02-15T01:35:32;29.70;;;6.37;;
2772;SDS011;1394;47.044;15.744;2023-02-15T01:37:59;28.77;;;5.97;;
2772;SDS011;1394;47.044;15.744;2023-02-15T01:40:28;30.10;;;6.97;;
2772;SDS011;1394;47.044;15.744;2023-02-15T01:42:55;29.63;;;6.60;;
2772;SDS011;1394;47.044;15.744;2023-02-15T01:45:23;28.80;;;6.20;;
2772;SDS011;1394;47.044;15.744;2023-02-15T01:47:54;30.80;;;7.63;;
2772;SDS011;1394;47.044;15.744;2023-02-15T01:50:24;30.03;;;6.93;;
2772;SDS011;1394;47.044;15.744;2023-02-15T01:52:53;28.30;;;6.07;;
2772;SDS011;1394;47.044;15.744;2023-02-15T01:55:21;29.23;;;6.50;;
2772;SDS011;1394;47.044;15.744;2023-02-15T01:57:50;28.70;;;5.90;;
2772;SDS011;1394;47.044;15.744;2023-02-15T02:00:20;29.07;;;6.07;;
2772;SDS011;1394;47.044;15.744;2023-02-15T02:02:48;29.20;;;6.63;;
2772;SDS011;1394;47.044;15.744;2023-02-15T02:05:17;29.97;;;6.50;;
2772;SDS011;1394;47.044;15.744;2023-02-15T02:07:44;29.90;;;7.00;;
2772;SDS011;1394;47.044;15.744;2023-02-15T02:10:13;30.07;;;6.90;;
2772;SDS011;1394;47.044;15.744;2023-02-15T02:12:40;28.90;;;6.60;;
2772;SDS011;1394;47.044;15.744;2023-02-15T02:15:10;28.87;;;6.27;;
2772;SDS011;1394;47.044;15.744;2023-02-15T02:17:40;29.80;;;6.90;;
2772;SDS011;1394;47.044;15.744;2023-02-15T02:20:16;29.57;;;6.60;;
2772;SDS011;1394;47.044;15.744;2023-02-15T02:23:07;29.30;;;6.47;;
2772;SDS011;1394;47.044;15.744;2023-02-15T02:25:45;29.23;;;6.20;;
2772;SDS011;1394;47.044;15.744;2023-02-15T02:31:16;29.97;;;6.40;;
2772;SDS011;1394;47.044;15.744;2023-02-15T02:33:51;29.53;;;5.90;;
2772;SDS011;1394;47.044;15.744;2023-02-15T02:36:24;29.93;;;6.60;;
2772;SDS011;1394;47.044;15.744;2023-02-15T02:38:57;28.40;;;5.60;;
2772;SDS011;1394;47.044;15.744;2023-02-15T02:41:29;28.30;;;6.20;;
2772;SDS011;1394;47.044;15.744;2023-02-15T02:43:59;29.13;;;5.80;;
2772;SDS011;1394;47.044;15.744;2023-02-15T02:46:30;28.27;;;5.27;;
2772;SDS011;1394;47.044;15.744;2023-02-15T02:49:01;29.43;;;6.03;;
2772;SDS011;1394;47.044;15.744;2023-02-15T02:51:28;28.27;;;5.83;;
2772;SDS011;1394;47.044;15.744;2023-02-15T02:53:58;28.57;;;5.90;;
2772;SDS011;1394;47.044;15.744;2023-02-15T02:56:28;29.50;;;5.90;;
2772;SDS011;1394;47.044;15.744;2023-02-15T02:58:56;29.27;;;6.40;;
2772;SDS011;1394;47.044;15.744;2023-02-15T03:01:27;30.77;;;7.27;;
2772;SDS011;1394;47.044;15.744;2023-02-15T03:03:57;30.50;;;6.80;;
2772;SDS011;1394;47.044;15.744;2023-02-15T03:06:29;29.17;;;6.27;;
2772;SDS011;1394;47.044;15.744;2023-02-15T03:09:06;28.20;;;5.73;;
2772;SDS011;1394;47.044;15.744;2023-02-15T03:11:39;30.07;;;6.70;;
2772;SDS011;1394;47.044;15.744;2023-02-15T03:14:06;28.87;;;6.30;;
2772;SDS011;1394;47.044;15.744;2023-02-15T03:16:33;29.00;;;6.23;;
2772;SDS011;1394;47.044;15.744;2023-02-15T03:19:01;29.33;;;6.80;;
2772;SDS011;1394;47.044;15.744;2023-02-15T03:21:33;28.37;;;5.63;;
2772;SDS011;1394;47.044;15.744;2023-02-15T03:24:03;28.60;;;6.13;;
2772;SDS011;1394;47.044;15.744;2023-02-15T03:26:31;29.23;;;6.13;;
2772;SDS011;1394;47.044;15.744;2023-02-15T03:28:59;29.53;;;6.57;;
2772;SDS011;1394;47.044;15.744;2023-02-15T03:31:28;28.83;;;6.57;;
2772;SDS011;1394;47.044;15.744;2023-02-15T03:33:57;28.67;;;6.23;;
2772;SDS011;1394;47.044;15.744;2023-02-15T03:36:26;28.63;;;5.80;;
2772;SDS011;1394;47.044;15.744;2023-02-15T03:39:02;28.90;;;5.87;;
2772;SDS011;1394;47.044;15.744;2023-02-15T03:41:33;31.27;;;7.20;;
2772;SDS011;1394;47.044;15.744;2023-02-15T03:44:03;30.13;;;6.80;;
2772;SDS011;1394;47.044;15.744;2023-02-15T03:46:33;28.70;;;6.23;;
2772;SDS011;1394;47.044;15.744;2023-02-15T03:49:02;28.77;;;6.40;;
2772;SDS011;1394;47.044;15.744;2023-02-15T03:51:32;28.77;;;5.70;;
2772;SDS011;1394;47.044;15.744;2023-02-15T03:54:00;28.67;;;6.40;;
2772;SDS011;1394;47.044;15.744;2023-02-15T03:56:28;28.80;;;5.97;;
2772;SDS011;1394;47.044;15.744;2023-02-15T03:58:56;28.17;;;5.87;;
2772;SDS011;1394;47.044;15.744;2023-02-15T04:01:43;29.77;;;6.63;;
2772;SDS011;1394;47.044;15.744;2023-02-15T04:04:33;29.00;;;5.90;;
2772;SDS011;1394;47.044;15.744;2023-02-15T04:07:02;29.13;;;7.20;;
2772;SDS011;1394;47.044;15.744;2023-02-15T04:09:31;30.07;;;6.73;;
2772;SDS011;1394;47.044;15.744;2023-02-15T04:12:16;28.63;;;6.37;;
2772;SDS011;1394;47.044;15.744;2023-02-15T04:14:43;31.00;;;6.97;;
2772;SDS011;1394;47.044;15.744;2023-02-15T04:17:28;28.60;;;5.60;;
2772;SDS011;1394;47.044;15.744;2023-02-15T04:19:55;29.80;;;6.97;;
2772;SDS011;1394;47.044;15.744;2023-02-15T04:22:40;30.27;;;7.43;;
2772;SDS011;1394;47.044;15.744;2023-02-15T04:25:26;29.70;;;7.30;;
2772;SDS011;1394;47.044;15.744;2023-02-15T04:27:53;30.00;;;7.10;;
2772;SDS011;1394;47.044;15.744;2023-02-15T04:30:21;29.17;;;6.30;;
2772;SDS011;1394;47.044;15.744;2023-02-15T04:32:50;28.90;;;6.87;;
2772;SDS011;1394;47.044;15.744;2023-02-15T04:35:20;28.40;;;6.00;;
2772;SDS011;1394;47.044;15.744;2023-02-15T04:37:47;29.70;;;6.90;;
2772;SDS011;1394;47.044;15.744;2023-02-15T04:40:15;29.43;;;6.50;;
2772;SDS011;1394;47.044;15.744;2023-02-15T04:42:45;29.10;;;6.10;;
2772;SDS011;1394;47.044;15.744;2023-02-15T04:45:13;27.60;;;5.47;;
2772;SDS011;1394;47.044;15.744;2023-02-15T04:47:40;29.50;;;5.80;;
2772;SDS011;1394;47.044;15.744;2023-02-15T04:50:08;28.87;;;6.10;;
2772;SDS011;1394;47.044;15.744;2023-02-15T04:52:35;28.93;;;6.00;;
2772;SDS011;1394;47.044;15.744;2023-02-15T04:55:03;28.27;;;6.00;;
2772;SDS011;1394;47.044;15.744;2023-02-15T04:57:31;28.83;;;5.43;;
2772;SDS011;1394;47.044;15.744;2023-02-15T05:00:00;29.70;;;6.20;;
2772;SDS011;1394;47.044;15.744;2023-02-15T05:02:27;28.90;;;6.03;;
2772;SDS011;1394;47.044;15.744;2023-02-15T05:04:54;28.70;;;6.17;;
2772;SDS011;1394;47.044;15.744;2023-02-15T05:07:24;29.47;;;6.63;;
2772;SDS011;1394;47.044;15.744;2023-02-15T05:09:51;28.90;;;6.43;;
2772;SDS011;1394;47.044;15.744;2023-02-15T05:12:18;29.50;;;7.20;;
2772;SDS011;1394;47.044;15.744;2023-02-15T05:14:47;29.87;;;6.50;;
2772;SDS011;1394;47.044;15.744;2023-02-15T05:17:16;30.37;;;7.53;;
2772;SDS011;1394;47.044;15.744;2023-02-15T05:19:43;29.17;;;6.73;;
2772;SDS011;1394;47.044;15.744;2023-02-15T05:22:10;30.67;;;7.57;;
2772;SDS011;1394;47.044;15.744;2023-02-15T05:24:37;29.27;;;6.77;;
2772;SDS011;1394;47.044;15.744;2023-02-15T05:27:22;30.80;;;7.70;;
2772;SDS011;1394;47.044;15.744;2023-02-15T05:30:07;29.63;;;7.40;;
2772;SDS011;1394;47.044;15.744;2023-02-15T05:32:37;30.57;;;6.53;;
2772;SDS011;1394;47.044;15.744;2023-02-15T05:35:05;31.27;;;7.07;;
2772;SDS011;1394;47.044;15.744;2023-02-15T05:37:32;29.80;;;6.17;;
2772;SDS011;1394;47.044;15.744;2023-02-15T05:40:01;30.00;;;7.50;;
2772;SDS011;1394;47.044;15.744;2023-02-15T05:42:30;30.00;;;6.90;;
2772;SDS011;1394;47.044;15.744;2023-02-15T05:44:57;29.60;;;7.33;;
2772;SDS011;1394;47.044;15.744;2023-02-15T05:47:24;29.80;;;6.90;;
2772;SDS011;1394;47.044;15.744;2023-02-15T05:49:55;29.63;;;6.50;;
2772;SDS011;1394;47.044;15.744;2023-02-15T05:52:23;30.57;;;8.57;;
2772;SDS011;1394;47.044;15.744;2023-02-15T05:54:50;29.40;;;6.87;;
2772;SDS011;1394;47.044;15.744;2023-02-15T05:57:17;30.20;;;6.80;;
2772;SDS011;1394;47.044;15.744;2023-02-15T05:59:44;31.10;;;7.83;;
2772;SDS011;1394;47.044;15.744;2023-02-15T06:02:12;29.60;;;6.97;;
2772;SDS011;1394;47.044;15.744;2023-02-15T06:04:41;29.73;;;7.17;;
2772;SDS011;1394;47.044;15.744;2023-02-15T06:07:14;29.07;;;7.00;;
2772;SDS011;1394;47.044;15.744;2023-02-15T06:09:42;30.10;;;7.37;;
2772;SDS011;1394;47.044;15.744;2023-02-15T06:12:09;30.10;;;7.50;;
2772;SDS011;1394;47.044;15.744;2023-02-15T06:14:37;33.73;;;9.13;;
2772;SDS011;1394;47.044;15.744;2023-02-15T06:17:05;30.37;;;8.23;;
2772;SDS011;1394;47.044;15.744;2023-02-15T06:19:32;30.57;;;8.07;;
2772;SDS011;1394;47.044;15.744;2023-02-15T06:22:05;30.17;;;7.30;;
2772;SDS011;1394;47.044;15.744;2023-02-15T06:24:34;29.37;;;6.53;;
2772;SDS011;1394;47.044;15.744;2023-02-15T06:27:01;30.50;;;6.47;;
2772;SDS011;1394;47.044;15.744;2023-02-15T06:29:29;29.83;;;6.30;;
2772;SDS011;1394;47.044;15.744;2023-02-15T06:31:56;30.13;;;6.73;;
2772;SDS011;1394;47.044;15.744;2023-02-15T06:34:24;32.43;;;7.70;;
2772;SDS011;1394;47.044;15.744;2023-02-15T06:36:52;28.97;;;6.73;;
2772;SDS011;1394;47.044;15.744;2023-02-15T06:39:21;30.40;;;6.90;;
2772;SDS011;1394;47.044;15.744;2023-02-15T06:41:50;30.40;;;7.10;;
2772;SDS011;1394;47.044;15.744;2023-02-15T06:44:17;30.03;;;6.80;;
2772;SDS011;1394;47.044;15.744;2023-02-15T06:46:44;29.03;;;6.47;;
2772;SDS011;1394;47.044;15.744;2023-02-15T06:49:12;29.73;;;6.90;;
2772;SDS011;1394;47.044;15.744;2023-02-15T06:51:40;30.90;;;7.67;;
2772;SDS011;1394;47.044;15.744;2023-02-15T06:54:07;31.20;;;9.10;;
2772;SDS011;1394;47.044;15.744;2023-02-15T06:56:35;30.40;;;8.10;;
2772;SDS011;1394;47.044;15.744;2023-02-15T06:59:05;30.50;;;7.53;;
2772;SDS011;1394;47.044;15.744;2023-02-15T07:01:35;29.23;;;7.10;;
2772;SDS011;1394;47.044;15.744;2023-02-15T07:04:03;31.80;;;7.60;;
2772;SDS011;1394;47.044;15.744;2023-02-15T07:06:31;29.70;;;7.23;;
2772;SDS011;1394;47.044;15.744;2023-02-15T07:09:00;30.40;;;7.53;;
2772;SDS011;1394;47.044;15.744;2023-02-15T07:11:28;31.00;;;8.50;;
2772;SDS011;1394;47.044;15.744;2023-02-15T07:14:14;30.70;;;8.30;;
2772;SDS011;1394;47.044;15.744;2023-02-15T07:16:43;31.10;;;8.50;;
2772;SDS011;1394;47.044;15.744;2023-02-15T07:19:10;33.90;;;10.03;;
2772;SDS011;1394;47.044;15.744;2023-02-15T07:21:37;32.00;;;9.63;;
2772;SDS011;1394;47.044;15.744;2023-02-15T07:24:05;33.33;;;7.67;;
2772;SDS011;1394;47.044;15.744;2023-02-15T07:26:32;29.43;;;7.40;;
2772;SDS011;1394;47.044;15.744;2023-02-15T07:29:02;31.80;;;8.17;;
2772;SDS011;1394;47.044;15.744;2023-02-15T07:31:31;32.13;;;9.60;;
2772;SDS011;1394;47.044;15.744;2023-02-15T07:33:58;30.30;;;8.17;;
2772;SDS011;1394;47.044;15.744;2023-02-15T07:36:25;33.93;;;9.70;;
2772;SDS011;1394;47.044;15.744;2023-02-15T07:38:52;30.40;;;8.30;;
2772;SDS011;1394;47.044;15.744;2023-02-15T07:41:20;30.30;;;7.90;;
2772;SDS011;1394;47.044;15.744;2023-02-15T07:43:48;31.07;;;8.33;;
2772;SDS011;1394;47.044;15.744;2023-02-15T07:46:16;31.40;;;8.90;;
2772;SDS011;1394;47.044;15.744;2023-02-15T07:48:45;31.50;;;8.87;;
2772;SDS011;1394;47.044;15.744;2023-02-15T07:51:13;31.00;;;8.80;;
2772;SDS011;1394;47.044;15.744;2023-02-15T07:53:42;32.63;;;9.83;;
2772;SDS011;1394;47.044;15.744;2023-02-15T07:56:11;31.40;;;9.00;;
2772;SDS011;1394;47.044;15.744;2023-02-15T07:58:38;32.07;;;9.23;;
2772;SDS011;1394;47.044;15.744;2023-02-15T08:01:20;33.00;;;9.83;;
2772;SDS011;1394;47.044;15.744;2023-02-15T08:03:50;31.43;;;8.57;;
2772;SDS011;1394;47.044;15.744;2023-02-15T08:06:18;32.30;;;9.50;;
2772;SDS011;1394;47.044;15.744;2023-02-15T08:08:46;32.40;;;9.73;;
2772;SDS011;1394;47.044;15.744;2023-02-15T08:11:17;32.90;;;10.33;;
2772;SDS011;1394;47.044;15.744;2023-02-15T08:14:00;33.60;;;10.90;;
2772;SDS011;1394;47.044;15.744;2023-02-15T08:16:30;34.07;;;11.60;;
2772;SDS011;1394;47.044;15.744;2023-02-15T08:18:59;31.60;;;8.97;;
2772;SDS011;1394;47.044;15.744;2023-02-15T08:21:27;31.87;;;9.60;;
2772;SDS011;1394;47.044;15.744;2023-02-15T08:23:57;33.03;;;10.13;;
2772;SDS011;1394;47.044;15.744;2023-02-15T08:26:25;30.60;;;7.80;;
2772;SDS011;1394;47.044;15.744;2023-02-15T08:28:53;32.63;;;8.80;;
2772;SDS011;1394;47.044;15.744;2023-02-15T08:31:22;32.80;;;8.43;;
2772;SDS011;1394;47.044;15.744;2023-02-15T08:33:50;31.70;;;8.70;;
2772;SDS011;1394;47.044;15.744;2023-02-15T08:36:20;33.53;;;10.20;;
2772;SDS011;1394;47.044;15.744;2023-02-15T08:38:47;34.23;;;10.73;;
2772;SDS011;1394;47.044;15.744;2023-02-15T08:41:15;34.30;;;9.97;;
2772;SDS011;1394;47.044;15.744;2023-02-15T08:43:44;33.83;;;9.77;;
2772;SDS011;1394;47.044;15.744;2023-02-15T08:46:14;34.97;;;10.40;;
2772;SDS011;1394;47.044;15.744;2023-02-15T08:48:43;33.57;;;9.00;;
2772;SDS011;1394;47.044;15.744;2023-02-15T08:51:12;32.70;;;9.50;;
2772;SDS011;1394;47.044;15.744;2023-02-15T08:53:42;33.47;;;9.77;;
2772;SDS011;1394;47.044;15.744;2023-02-15T08:56:09;32.60;;;9.30;;
2772;SDS011;1394;47.044;15.744;2023-02-15T08:58:37;33.40;;;9.80;;
2772;SDS011;1394;47.044;15.744;2023-02-15T09:01:09;32.20;;;9.10;;
2772;SDS011;1394;47.044;15.744;2023-02-15T09:03:36;34.27;;;9.20;;
2772;SDS011;1394;47.044;15.744;2023-02-15T09:06:03;34.10;;;9.30;;
2772;SDS011;1394;47.044;15.744;2023-02-15T09:08:31;33.30;;;9.60;;
2772;SDS011;1394;47.044;15.744;2023-02-15T09:11:10;32.40;;;10.03;;
2772;SDS011;1394;47.044;15.744;2023-02-15T09:13:38;32.33;;;9.13;;
2772;SDS011;1394;47.044;15.744;2023-02-15T09:16:07;33.93;;;10.33;;
2772;SDS011;1394;47.044;15.744;2023-02-15T09:18:37;32.87;;;10.10;;
2772;SDS011;1394;47.044;15.744;2023-02-15T09:21:05;33.73;;;10.53;;
2772;SDS011;1394;47.044;15.744;2023-02-15T09:23:33;32.87;;;9.93;;
2772;SDS011;1394;47.044;15.744;2023-02-15T09:26:04;34.17;;;10.00;;
2772;SDS011;1394;47.044;15.744;2023-02-15T09:28:35;33.50;;;10.30;;
2772;SDS011;1394;47.044;15.744;2023-02-15T09:31:04;34.97;;;10.90;;
2772;SDS011;1394;47.044;15.744;2023-02-15T09:33:34;31.90;;;8.00;;
2772;SDS011;1394;47.044;15.744;2023-02-15T09:36:04;33.27;;;9.90;;
2772;SDS011;1394;47.044;15.744;2023-02-15T09:38:32;33.20;;;9.90;;
2772;SDS011;1394;47.044;15.744;2023-02-15T09:41:09;34.47;;;10.20;;
2772;SDS011;1394;47.044;15.744;2023-02-15T09:43:44;33.10;;;9.20;;
2772;SDS011;1394;47.044;15.744;2023-02-15T09:46:20;33.03;;;9.50;;
2772;SDS011;1394;47.044;15.744;2023-02-15T09:48:50;33.43;;;9.70;;
2772;SDS011;1394;47.044;15.744;2023-02-15T09:51:23;33.57;;;9.50;;
2772;SDS011;1394;47.044;15.744;2023-02-15T09:54:01;32.30;;;9.20;;
2772;SDS011;1394;47.044;15.744;2023-02-15T09:56:31;33.50;;;9.00;;
2772;SDS011;1394;47.044;15.744;2023-02-15T09:59:06;35.30;;;10.00;;
2772;SDS011;1394;47.044;15.744;2023-02-15T10:01:39;32.67;;;9.00;;
2772;SDS011;1394;47.044;15.744;2023-02-15T10:04:19;31.37;;;8.20;;
2772;SDS011;1394;47.044;15.744;2023-02-15T10:06:51;33.60;;;10.60;;
2772;SDS011;1394;47.044;15.744;2023-02-15T10:09:30;33.90;;;10.00;;
2772;SDS011;1394;47.044;15.744;2023-02-15T10:12:07;32.83;;;9.80;;
2772;SDS011;1394;47.044;15.744;2023-02-15T10:17:32;33.30;;;9.63;;
2772;SDS011;1394;47.044;15.744;2023-02-15T10:20:05;33.90;;;10.00;;
2772;SDS011;1394;47.044;15.744;2023-02-15T10:22:37;33.03;;;9.37;;
2772;SDS011;1394;47.044;15.744;2023-02-15T10:28:01;33.60;;;9.80;;
2772;SDS011;1394;47.044;15.744;2023-02-15T10:30:32;33.70;;;9.80;;
2772;SDS011;1394;47.044;15.744;2023-02-15T10:33:04;32.63;;;8.90;;
2772;SDS011;1394;47.044;15.744;2023-02-15T10:35:36;32.30;;;8.27;;
2772;SDS011;1394;47.044;15.744;2023-02-15T10:38:07;32.03;;;8.97;;
2772;SDS011;1394;47.044;15.744;2023-02-15T10:40:39;34.30;;;10.33;;
2772;SDS011;1394;47.044;15.744;2023-02-15T10:43:12;33.90;;;9.80;;
2772;SDS011;1394;47.044;15.744;2023-02-15T10:45:48;33.90;;;9.17;;
2772;SDS011;1394;47.044;15.744;2023-02-15T10:48:25;34.10;;;9.40;;
2772;SDS011;1394;47.044;15.744;2023-02-15T10:50:56;33.87;;;10.03;;
2772;SDS011;1394;47.044;15.744;2023-02-15T10:53:35;34.73;;;10.30;;
2772;SDS011;1394;47.044;15.744;2023-02-15T10:56:07;33.00;;;9.33;;
2772;SDS011;1394;47.044;15.744;2023-02-15T10:58:42;31.87;;;8.50;;
2772;SDS011;1394;47.044;15.744;2023-02-15T11:01:13;33.27;;;9.10;;
2772;SDS011;1394;47.044;15.744;2023-02-15T11:04:04;33.47;;;10.50;;
2772;SDS011;1394;47.044;15.744;2023-02-15T11:06:39;33.63;;;9.40;;
2772;SDS011;1394;47.044;15.744;2023-02-15T11:09:09;33.10;;;9.00;;
2772;SDS011;1394;47.044;15.744;2023-02-15T11:11:38;32.87;;;9.40;;
2772;SDS011;1394;47.044;15.744;2023-02-15T11:14:10;32.67;;;9.57;;
2772;SDS011;1394;47.044;15.744;2023-02-15T11:16:40;33.07;;;9.40;;
2772;SDS011;1394;47.044;15.744;2023-02-15T11:19:11;33.20;;;9.50;;
2772;SDS011;1394;47.044;15.744;2023-02-15T11:21:40;34.20;;;10.83;;
2772;SDS011;1394;47.044;15.744;2023-02-15T11:24:10;32.30;;;8.97;;
2772;SDS011;1394;47.044;15.744;2023-02-15T11:26:39;32.60;;;8.70;;
2772;SDS011;1394;47.044;15.744;2023-02-15T11:29:13;32.50;;;9.70;;
2772;SDS011;1394;47.044;15.744;2023-02-15T11:31:43;32.87;;;9.67;;
2772;SDS011;1394;47.044;15.744;2023-02-15T11:34:15;34.20;;;9.37;;
2772;SDS011;1394;47.044;15.744;2023-02-15T11:36:45;33.90;;;10.50;;
2772;SDS011;1394;47.044;15.744;2023-02-15T11:39:15;34.50;;;10.37;;
2772;SDS011;1394;47.044;15.744;2023-02-15T11:41:47;33.67;;;9.30;;
2772;SDS011;1394;47.044;15.744;2023-02-15T11:44:19;34.20;;;10.00;;
2772;SDS011;1394;47.044;15.744;2023-02-15T11:46:48;33.30;;;8.90;;
2772;SDS011;1394;47.044;15.744;2023-02-15T11:49:22;33.20;;;9.17;;
2772;SDS011;1394;47.044;15.744;2023-02-15T11:51:50;35.07;;;11.00;;
2772;SDS011;1394;47.044;15.744;2023-02-15T11:54:18;35.83;;;10.90;;
2772;SDS011;1394;47.044;15.744;2023-02-15T11:56:48;36.23;;;11.47;;
2772;SDS011;1394;47.044;15.744;2023-02-15T11:59:18;34.20;;;10.73;;
2772;SDS011;1394;47.044;15.744;2023-02-15T12:01:48;33.77;;;8.73;;
2772;SDS011;1394;47.044;15.744;2023-02-15T12:04:18;33.67;;;10.83;;
2772;SDS011;1394;47.044;15.744;2023-02-15T12:06:51;33.17;;;9.30;;
2772;SDS011;1394;47.044;15.744;2023-02-15T12:09:23;34.20;;;10.27;;
2772;SDS011;1394;47.044;15.744;2023-02-15T12:11:52;33.70;;;9.93;;
2772;SDS011;1394;47.044;15.744;2023-02-15T12:14:19;34.03;;;9.93;;
2772;SDS011;1394;47.044;15.744;2023-02-15T12:16:47;34.23;;;9.97;;
2772;SDS011;1394;47.044;15.744;2023-02-15T12:19:27;33.20;;;9.90;;
2772;SDS011;1394;47.044;15.744;2023-02-15T12:21:56;32.40;;;9.20;;
2772;SDS011;1394;47.044;15.744;2023-02-15T12:24:27;33.67;;;9.37;;
2772;SDS011;1394;47.044;15.744;2023-02-15T12:26:56;35.50;;;10.93;;
2772;SDS011;1394;47.044;15.744;2023-02-15T12:29:30;33.80;;;9.97;;
2772;SDS011;1394;47.044;15.744;2023-02-15T12:31:59;34.30;;;9.93;;
2772;SDS011;1394;47.044;15.744;2023-02-15T12:34:29;36.07;;;11.80;;
2772;SDS011;1394;47.044;15.744;2023-02-15T12:36:59;34.50;;;9.27;;
2772;SDS011;1394;47.044;15.744;2023-02-15T12:39:28;33.80;;;10.10;;
2772;SDS011;1394;47.044;15.744;2023-02-15T12:42:02;34.93;;;10.40;;
2772;SDS011;1394;47.044;15.744;2023-02-15T12:44:30;37.20;;;11.10;;
2772;SDS011;1394;47.044;15.744;2023-02-15T12:47:02;33.97;;;10.50;;
2772;SDS011;1394;47.044;15.744;2023-02-15T12:49:30;34.97;;;10.57;;
2772;SDS011;1394;47.044;15.744;2023-02-15T12:51:59;33.77;;;8.97;;
2772;SDS011;1394;47.044;15.744;2023-02-15T12:57:13;34.03;;;9.77;;
2772;SDS011;1394;47.044;15.744;2023-02-15T12:59:47;34.37;;;10.03;;
2772;SDS011;1394;47.044;15.744;2023-02-15T13:02:18;33.80;;;9.80;;
2772;SDS011;1394;47.044;15.744;2023-02-15T13:04:47;33.20;;;9.60;;
2772;SDS011;1394;47.044;15.744;2023-02-15T13:07:16;33.67;;;9.60;;
2772;SDS011;1394;47.044;15.744;2023-02-15T13:09:44;33.90;;;9.43;;
2772;SDS011;1394;47.044;15.744;2023-02-15T13:12:18;33.93;;;9.60;;
2772;SDS011;1394;47.044;15.744;2023-02-15T13:14:47;34.57;;;9.93;;
2772;SDS011;1394;47.044;15.744;2023-02-15T13:17:17;33.40;;;9.40;;
2772;SDS011;1394;47.044;15.744;2023-02-15T13:19:46;33.00;;;9.37;;
2772;SDS011;1394;47.044;15.744;2023-02-15T13:22:18;36.23;;;10.03;;
2772;SDS011;1394;47.044;15.744;2023-02-15T13:24:48;34.73;;;10.33;;
2772;SDS011;1394;47.044;15.744;2023-02-15T13:27:17;34.60;;;10.20;;
2772;SDS011;1394;47.044;15.744;2023-02-15T13:29:48;32.23;;;8.67;;
2772;SDS011;1394;47.044;15.744;2023-02-15T13:32:21;34.00;;;9.70;;
2772;SDS011;1394;47.044;15.744;2023-02-15T13:34:51;32.00;;;8.83;;
2772;SDS011;1394;47.044;15.744;2023-02-15T13:37:25;32.43;;;8.23;;
2772;SDS011;1394;47.044;15.744;2023-02-15T13:39:58;31.00;;;8.13;;
2772;SDS011;1394;47.044;15.744;2023-02-15T13:42:29;32.43;;;9.10;;
2772;SDS011;1394;47.044;15.744;2023-02-15T13:45:01;31.67;;;8.70;;
2772;SDS011;1394;47.044;15.744;2023-02-15T13:47:32;34.97;;;10.50;;
2772;SDS011;1394;47.044;15.744;2023-02-15T13:50:04;32.97;;;10.00;;
2772;SDS011;1394;47.044;15.744;2023-02-15T13:52:42;31.90;;;9.00;;
2772;SDS011;1394;47.044;15.744;2023-02-15T13:55:26;32.57;;;9.47;;
2772;SDS011;1394;47.044;15.744;2023-02-15T14:00:45;33.00;;;10.30;;
2772;SDS011;1394;47.044;15.744;2023-02-15T14:03:27;33.37;;;10.00;;
2772;SDS011;1394;47.044;15.744;2023-02-15T14:06:14;33.20;;;10.33;;
2772;SDS011;1394;47.044;15.744;2023-02-15T14:08:53;32.53;;;9.33;;
2772;SDS011;1394;47.044;15.744;2023-02-15T14:11:25;32.50;;;9.90;;
2772;SDS011;1394;47.044;15.744;2023-02-15T14:13:56;34.53;;;10.87;;
2772;SDS011;1394;47.044;15.744;2023-02-15T14:16:27;32.77;;;9.70;;
2772;SDS011;1394;47.044;15.744;2023-02-15T14:18:59;35.20;;;9.87;;
2772;SDS011;1394;47.044;15.744;2023-02-15T14:21:31;33.70;;;9.60;;
2772;SDS011;1394;47.044;15.744;2023-02-15T14:24:07;33.70;;;10.03;;
2772;SDS011;1394;47.044;15.744;2023-02-15T14:26:44;32.80;;;9.70;;
2772;SDS011;1394;47.044;15.744;2023-02-15T14:29:23;34.47;;;11.37;;
2772;SDS011;1394;47.044;15.744;2023-02-15T14:31:57;32.87;;;9.37;;
2772;SDS011;1394;47.044;15.744;2023-02-15T14:34:30;34.07;;;11.53;;
2772;SDS011;1394;47.044;15.744;2023-02-15T14:37:01;33.63;;;10.30;;
2772;SDS011;1394;47.044;15.744;2023-02-15T14:39:35;33.37;;;10.67;;
2772;SDS011;1394;47.044;15.744;2023-02-15T14:42:23;31.90;;;8.70;;
2772;SDS011;1394;47.044;15.744;2023-02-15T14:44:54;33.10;;;9.70;;
2772;SDS011;1394;47.044;15.744;2023-02-15T14:47:26;33.20;;;10.27;;
2772;SDS011;1394;47.044;15.744;2023-02-15T14:49:55;32.97;;;10.53;;
2772;SDS011;1394;47.044;15.744;2023-02-15T14:52:22;33.47;;;9.60;;
2772;SDS011;1394;47.044;15.744;2023-02-15T14:55:04;32.57;;;9.57;;
2772;SDS011;1394;47.044;15.744;2023-02-15T14:57:33;32.90;;;10.10;;
2772;SDS011;1394;47.044;15.744;2023-02-15T15:00:03;32.97;;;9.60;;
2772;SDS011;1394;47.044;15.744;2023-02-15T15:02:40;32.67;;;9.20;;
2772;SDS011;1394;47.044;15.744;2023-02-15T15:05:10;32.20;;;8.57;;
2772;SDS011;1394;47.044;15.744;2023-02-15T15:07:42;32.33;;;9.73;;
2772;SDS011;1394;47.044;15.744;2023-02-15T15:12:53;32.13;;;9.20;;
2772;SDS011;1394;47.044;15.744;2023-02-15T15:15:33;34.30;;;10.03;;
2772;SDS011;1394;47.044;15.744;2023-02-15T15:18:01;32.07;;;9.10;;
2772;SDS011;1394;47.044;15.744;2023-02-15T15:20:40;31.80;;;8.83;;
2772;SDS011;1394;47.044;15.744;2023-02-15T15:26:01;30.77;;;8.13;;